Time;durP1;ratioP1;P1;durP2;ratioP2;P2;SDS_P1;SDS_P2;PMS_P1;PMS_P2;Temp;Humidity;BMP_temperature;BMP_pressure;BME280_temperature;BME280_humidity;BME280_pressure;Samples;Min_cycle;Max_cycle;Signal;HPM_P1;HPM_P2
2021/12/03 00:00:11;;;;;;;4.80;1.70;;;0.40;99.90;;;;;;5055063;28;20021;-78
2021/12/03 00:02:36;;;;;;;4.07;1.75;;;0.40;99.90;;;;;;5036621;28;20428;-78
2021/12/03 00:05:03;;;;;;;3.30;1.88;;;0.40;99.90;;;;;;5070516;28;20074;-79
2021/12/03 00:07:28;;;;;;;5.38;1.70;;;0.40;99.90;;;;;;5070580;28;20021;-79
2021/12/03 00:09:54;;;;;;;4.15;1.55;;;0.40;99.90;;;;;;5044242;28;20017;-79
2021/12/03 00:12:21;;;;;;;8.75;2.10;;;0.30;99.90;;;;;;5064125;28;20021;-79
2021/12/03 00:14:46;;;;;;;10.77;1.83;;;0.30;99.90;;;;;;5037114;28;20032;-78
2021/12/03 00:17:12;;;;;;;6.32;2.28;;;0.40;99.90;;;;;;5065929;28;20400;-79
2021/12/03 00:19:40;;;;;;;4.18;2.25;;;0.40;99.90;;;;;;5070612;28;20025;-79
2021/12/03 00:22:06;;;;;;;6.35;1.77;;;0.40;99.90;;;;;;5054335;28;20021;-79
2021/12/03 00:24:33;;;;;;;6.43;2.40;;;0.40;99.90;;;;;;5071071;28;20140;-78
2021/12/03 00:26:59;;;;;;;3.60;1.80;;;0.30;99.90;;;;;;5074602;28;20028;-78
2021/12/03 00:29:25;;;;;;;10.70;2.30;;;0.30;99.90;;;;;;5060572;28;20024;-78
2021/12/03 00:31:50;;;;;;;6.85;2.15;;;0.30;99.90;;;;;;5073963;28;20024;-79
2021/12/03 00:34:17;;;;;;;7.22;2.47;;;0.30;99.90;;;;;;5072838;28;20103;-78
2021/12/03 00:36:42;;;;;;;5.80;2.80;;;0.30;99.90;;;;;;5056684;28;20009;-78
2021/12/03 00:39:09;;;;;;;7.00;2.50;;;0.30;99.90;;;;;;5073761;28;20055;-78
2021/12/03 00:41:41;;;;;;;11.82;2.10;;;0.30;99.90;;;;;;5053848;28;20112;-79
2021/12/03 00:44:07;;;;;;;6.38;2.53;;;0.30;99.90;;;;;;5064528;28;20042;-78
2021/12/03 00:46:33;;;;;;;14.13;2.42;;;0.30;99.90;;;;;;5068062;28;20400;-78
2021/12/03 00:48:59;;;;;;;9.30;2.40;;;0.30;99.90;;;;;;5054473;28;20029;-78
2021/12/03 00:51:26;;;;;;;12.55;2.30;;;0.20;99.90;;;;;;5073591;28;20476;-79
2021/12/03 00:53:52;;;;;;;13.50;2.72;;;0.30;99.90;;;;;;5065647;28;20115;-78
2021/12/03 00:56:18;;;;;;;6.28;2.28;;;0.30;99.90;;;;;;5066839;28;20021;-79
2021/12/03 00:58:44;;;;;;;16.20;3.17;;;0.30;99.90;;;;;;5070628;28;20024;-79
2021/12/03 01:01:10;;;;;;;7.20;2.13;;;0.30;99.90;;;;;;5072621;28;20020;-78
2021/12/03 01:03:37;;;;;;;5.18;2.05;;;0.40;99.90;;;;;;5054693;28;20036;-79
2021/12/03 01:06:06;;;;;;;6.03;2.25;;;0.40;99.90;;;;;;5043073;28;20040;-78
2021/12/03 01:08:31;;;;;;;8.88;2.78;;;0.40;99.90;;;;;;5043451;28;20108;-79
2021/12/03 01:10:58;;;;;;;2.88;1.92;;;0.40;99.90;;;;;;5059545;28;20120;-79
2021/12/03 01:13:23;;;;;;;7.90;2.20;;;0.40;99.90;;;;;;5067871;28;20068;-79
2021/12/03 01:15:50;;;;;;;7.40;2.20;;;0.50;99.90;;;;;;5056588;28;20522;-79
2021/12/03 01:18:16;;;;;;;8.02;2.10;;;0.50;99.90;;;;;;5042360;28;20496;-79
2021/12/03 01:20:43;;;;;;;5.22;1.77;;;0.50;99.90;;;;;;5052855;28;20029;-78
2021/12/03 01:23:12;;;;;;;13.02;3.25;;;0.50;99.90;;;;;;5053173;28;20025;-79
2021/12/03 01:25:41;;;;;;;12.85;2.33;;;0.50;99.90;;;;;;5070146;28;20070;-79
2021/12/03 01:28:07;;;;;;;6.15;2.13;;;0.40;99.90;;;;;;5059673;28;20024;-78
2021/12/03 01:30:35;;;;;;;6.05;2.60;;;0.50;99.90;;;;;;5071790;28;20072;-79
2021/12/03 01:33:02;;;;;;;5.32;3.08;;;0.50;99.90;;;;;;5052843;28;20124;-78
2021/12/03 01:35:28;;;;;;;4.78;2.10;;;0.60;99.90;;;;;;5058477;28;20369;-78
2021/12/03 01:37:55;;;;;;;7.30;2.50;;;0.60;99.90;;;;;;5052898;28;20017;-78
2021/12/03 01:40:24;;;;;;;8.45;1.88;;;0.60;99.90;;;;;;5035355;28;20025;-79
2021/12/03 01:42:50;;;;;;;8.75;2.55;;;0.60;99.90;;;;;;5065618;28;20021;-78
2021/12/03 01:45:28;;;;;;;4.38;1.80;;;0.60;99.90;;;;;;5067140;28;20377;-79
2021/12/03 01:47:54;;;;;;;6.40;1.75;;;0.70;99.90;;;;;;5052752;28;20100;-79
2021/12/03 01:50:43;;;;;;;6.88;1.90;;;0.80;99.90;;;;;;5053102;28;20021;-78
2021/12/03 01:53:10;;;;;;;7.85;2.22;;;0.70;99.90;;;;;;5052574;28;20377;-79
2021/12/03 01:55:38;;;;;;;6.95;2.15;;;0.80;99.90;;;;;;5072557;28;20040;-79
2021/12/03 01:58:05;;;;;;;11.95;2.45;;;0.80;99.90;;;;;;5063842;28;20029;-79
2021/12/03 02:00:37;;;;;;;4.90;2.15;;;0.70;99.90;;;;;;5068717;28;20021;-78
2021/12/03 02:03:05;;;;;;;11.30;2.75;;;0.70;99.90;;;;;;5069290;28;20025;-79
2021/12/03 02:05:36;;;;;;;3.65;2.00;;;0.70;99.90;;;;;;5035142;28;20845;-79
2021/12/03 02:08:02;;;;;;;10.00;2.03;;;0.70;99.90;;;;;;5068471;28;20029;-79
2021/12/03 02:10:30;;;;;;;10.18;2.22;;;0.70;99.90;;;;;;5072117;28;20115;-79
2021/12/03 02:12:56;;;;;;;13.15;2.35;;;0.70;99.90;;;;;;5060572;28;20033;-79
2021/12/03 02:15:22;;;;;;;2.92;1.88;;;0.70;99.90;;;;;;5052684;28;20117;-78
2021/12/03 02:17:48;;;;;;;6.15;2.15;;;0.70;99.90;;;;;;5066222;28;20033;-78
2021/12/03 02:20:16;;;;;;;14.27;2.78;;;0.70;99.90;;;;;;5054610;28;20056;-79
2021/12/03 02:22:43;;;;;;;11.63;2.65;;;0.70;99.90;;;;;;5059485;28;20339;-79
2021/12/03 02:25:12;;;;;;;12.35;2.60;;;0.70;99.90;;;;;;5035043;28;20021;-79
2021/12/03 02:27:37;;;;;;;6.82;2.17;;;0.60;99.90;;;;;;5054612;28;20067;-78
2021/12/03 02:30:05;;;;;;;10.02;2.38;;;0.60;99.90;;;;;;5072678;28;20412;-79
2021/12/03 02:32:31;;;;;;;8.02;1.90;;;0.60;99.90;;;;;;5073985;28;20104;-79
2021/12/03 02:34:59;;;;;;;8.05;2.05;;;0.70;99.90;;;;;;5061055;28;20025;-78
2021/12/03 02:37:24;;;;;;;4.32;2.05;;;0.70;99.90;;;;;;5056742;28;20025;-79
2021/12/03 02:39:51;;;;;;;15.10;2.95;;;0.70;99.90;;;;;;5056459;28;20449;-79
2021/12/03 02:42:17;;;;;;;10.57;2.30;;;0.70;99.90;;;;;;5056468;28;20033;-79
2021/12/03 02:44:45;;;;;;;7.25;2.58;;;0.70;99.90;;;;;;5072740;28;20024;-78
2021/12/03 02:47:11;;;;;;;5.40;1.98;;;0.80;99.90;;;;;;5046545;28;20025;-79
2021/12/03 02:49:38;;;;;;;7.03;2.55;;;0.70;99.90;;;;;;5056252;28;20029;-79
2021/12/03 02:52:04;;;;;;;5.53;2.33;;;0.70;99.90;;;;;;5056320;28;20055;-79
2021/12/03 02:54:30;;;;;;;7.97;2.10;;;0.70;99.90;;;;;;5056376;28;20041;-78
2021/12/03 02:56:56;;;;;;;8.70;2.53;;;0.80;99.90;;;;;;5064005;28;20043;-79
2021/12/03 02:59:21;;;;;;;25.65;3.25;;;0.80;99.90;;;;;;5072140;28;20071;-79
2021/12/03 03:01:47;;;;;;;6.60;2.15;;;0.80;99.90;;;;;;5055984;28;20104;-79
2021/12/03 03:04:12;;;;;;;10.00;2.80;;;0.80;99.90;;;;;;5038316;28;20028;-78
2021/12/03 03:06:38;;;;;;;6.95;2.72;;;0.70;99.90;;;;;;5070241;28;20021;-78
2021/12/03 03:09:08;;;;;;;9.85;3.47;;;0.70;99.90;;;;;;5064627;28;20032;-78
2021/12/03 03:11:35;;;;;;;7.05;2.78;;;0.70;99.90;;;;;;5063419;28;20074;-78
2021/12/03 03:14:00;;;;;;;7.53;3.85;;;0.70;99.90;;;;;;5071467;28;20119;-78
2021/12/03 03:16:27;;;;;;;5.82;3.88;;;0.60;99.90;;;;;;5065146;28;20101;-78
2021/12/03 03:18:53;;;;;;;5.72;3.38;;;0.60;99.90;;;;;;5046821;28;20407;-79
2021/12/03 03:21:21;;;;;;;7.78;3.58;;;0.60;99.90;;;;;;5075254;28;20021;-78
2021/12/03 03:23:47;;;;;;;9.88;4.45;;;0.50;99.90;;;;;;5075388;28;20056;-79
2021/12/03 03:26:14;;;;;;;8.88;4.43;;;0.50;99.90;;;;;;5064422;28;20025;-79
2021/12/03 03:28:42;;;;;;;10.70;4.13;;;0.50;99.90;;;;;;5038953;28;20025;-79
2021/12/03 03:31:09;;;;;;;8.30;3.97;;;0.50;99.90;;;;;;5074783;28;20028;-79
2021/12/03 03:33:34;;;;;;;7.47;3.90;;;0.50;99.90;;;;;;5075027;28;20104;-78
2021/12/03 03:36:03;;;;;;;9.20;3.83;;;0.40;99.90;;;;;;5047361;28;20052;-78
2021/12/03 03:38:29;;;;;;;8.02;4.50;;;0.50;99.90;;;;;;5063473;28;20055;-79
2021/12/03 03:40:57;;;;;;;9.63;4.10;;;0.50;99.90;;;;;;5075305;28;20027;-79
2021/12/03 03:43:23;;;;;;;7.85;4.63;;;0.40;99.90;;;;;;5071547;28;20112;-78
2021/12/03 03:45:49;;;;;;;12.70;4.70;;;0.50;99.90;;;;;;5054906;28;20064;-78
2021/12/03 03:48:15;;;;;;;9.80;4.18;;;0.40;99.90;;;;;;5074248;28;20107;-78
2021/12/03 03:50:42;;;;;;;7.93;4.18;;;0.40;99.90;;;;;;5050392;28;20028;-79
2021/12/03 03:53:08;;;;;;;10.10;5.30;;;0.50;99.90;;;;;;5070143;28;20078;-78
2021/12/03 03:55:37;;;;;;;7.25;5.10;;;0.40;99.90;;;;;;5057096;28;20044;-79
2021/12/03 03:58:04;;;;;;;13.05;5.78;;;0.40;99.90;;;;;;5057324;28;20024;-78
2021/12/03 04:00:37;;;;;;;7.78;4.35;;;0.40;99.90;;;;;;5062664;28;20100;-78
2021/12/03 04:03:03;;;;;;;9.75;4.88;;;0.40;99.90;;;;;;5054781;28;20025;-79
2021/12/03 04:05:29;;;;;;;16.40;5.15;;;0.40;99.90;;;;;;5037415;28;20057;-78
2021/12/03 04:07:55;;;;;;;11.10;5.57;;;0.30;99.90;;;;;;5070499;28;20060;-79
2021/12/03 04:10:20;;;;;;;12.57;5.75;;;0.30;99.90;;;;;;5074860;28;20016;-78
2021/12/03 04:12:46;;;;;;;13.98;6.15;;;0.30;99.90;;;;;;5057460;28;20029;-79
2021/12/03 04:15:13;;;;;;;14.98;5.35;;;0.30;99.90;;;;;;5069710;28;20035;-79
2021/12/03 04:17:40;;;;;;;8.80;5.38;;;0.30;99.90;;;;;;5072014;28;20020;-78
2021/12/03 04:20:08;;;;;;;9.43;5.13;;;0.30;99.90;;;;;;5054864;28;20022;-79
2021/12/03 04:22:34;;;;;;;12.25;5.93;;;0.30;99.90;;;;;;5054358;28;20024;-79
2021/12/03 04:25:08;;;;;;;12.93;5.85;;;0.30;99.90;;;;;;5054782;28;20029;-78
2021/12/03 04:27:34;;;;;;;11.98;6.25;;;0.30;99.90;;;;;;5066285;28;20035;-79
2021/12/03 04:30:00;;;;;;;15.40;6.53;;;0.30;99.90;;;;;;5054612;28;20029;-78
2021/12/03 04:32:26;;;;;;;13.63;6.45;;;0.30;99.90;;;;;;5063119;28;20026;-79
2021/12/03 04:34:55;;;;;;;14.20;6.53;;;0.30;99.90;;;;;;5080507;28;20389;-79
2021/12/03 04:37:20;;;;;;;10.35;5.28;;;0.30;99.90;;;;;;5056531;28;20115;-79
2021/12/03 04:39:48;;;;;;;16.00;6.15;;;0.40;99.90;;;;;;5056307;28;20103;-78
2021/12/03 04:42:14;;;;;;;15.57;5.82;;;0.40;99.90;;;;;;5074220;28;20027;-79
2021/12/03 04:44:39;;;;;;;10.77;5.40;;;0.50;99.90;;;;;;5072491;28;20096;-79
2021/12/03 04:47:05;;;;;;;14.45;7.55;;;0.50;99.90;;;;;;5067941;28;20454;-79
2021/12/03 04:49:34;;;;;;;13.15;5.95;;;0.60;99.90;;;;;;5068579;28;20025;-79
2021/12/03 04:51:59;;;;;;;14.93;7.82;;;0.60;99.90;;;;;;5068243;28;20028;-78
2021/12/03 04:54:26;;;;;;;15.18;6.70;;;0.50;99.90;;;;;;5073584;28;20048;-79
2021/12/03 04:56:53;;;;;;;12.63;5.78;;;0.50;99.90;;;;;;5059352;28;20032;-79
2021/12/03 04:59:18;;;;;;;15.88;6.85;;;0.50;99.90;;;;;;5062229;28;20024;-79
2021/12/03 05:01:47;;;;;;;11.65;6.85;;;0.50;99.90;;;;;;5053647;28;20025;-79
2021/12/03 05:04:12;;;;;;;18.92;7.45;;;0.50;99.90;;;;;;5053666;28;20025;-79
2021/12/03 05:07:05;;;;;;;11.27;6.38;;;0.50;99.90;;;;;;5053876;28;20043;-78
2021/12/03 05:09:32;;;;;;;14.10;6.13;;;0.50;99.90;;;;;;5053510;28;20048;-79
2021/12/03 05:11:59;;;;;;;12.80;6.75;;;0.50;99.90;;;;;;5053546;28;20021;-79
2021/12/03 05:14:25;;;;;;;11.43;5.65;;;0.50;99.90;;;;;;5035897;28;20132;-79
2021/12/03 05:16:54;;;;;;;9.82;6.18;;;0.60;99.90;;;;;;5052999;28;20108;-79
2021/12/03 05:19:20;;;;;;;15.30;6.70;;;0.60;99.90;;;;;;5053343;28;20021;-78
2021/12/03 05:21:47;;;;;;;15.10;5.88;;;0.60;99.90;;;;;;5053517;28;20147;-79
2021/12/03 05:24:13;;;;;;;10.15;5.97;;;0.60;99.90;;;;;;5060562;28;20029;-78
2021/12/03 05:26:40;;;;;;;13.88;6.13;;;0.60;99.90;;;;;;5054151;28;20024;-78
2021/12/03 05:29:08;;;;;;;12.23;5.20;;;0.60;99.90;;;;;;5051652;28;20103;-79
2021/12/03 05:31:36;;;;;;;15.40;5.28;;;0.70;99.90;;;;;;5072657;28;20028;-79
2021/12/03 05:34:03;;;;;;;12.55;5.43;;;0.70;99.90;;;;;;5068990;28;20040;-78
2021/12/03 05:36:28;;;;;;;10.98;5.35;;;0.70;99.90;;;;;;5080808;28;20043;-79
2021/12/03 05:38:55;;;;;;;11.38;5.53;;;0.80;99.90;;;;;;5093332;28;20055;-79
2021/12/03 05:41:21;;;;;;;12.65;5.32;;;0.90;99.90;;;;;;5093520;28;20061;-78
2021/12/03 05:43:46;;;;;;;15.50;5.93;;;0.90;99.90;;;;;;5093560;28;20024;-79
2021/12/03 05:46:12;;;;;;;14.15;5.60;;;0.80;99.90;;;;;;5093276;28;20028;-79
2021/12/03 05:48:37;;;;;;;8.40;5.00;;;0.80;99.90;;;;;;5093439;28;20375;-78
2021/12/03 05:51:06;;;;;;;22.73;6.70;;;0.90;99.90;;;;;;5075050;28;20024;-78
2021/12/03 05:53:32;;;;;;;12.23;5.90;;;0.90;99.90;;;;;;5074676;28;20507;-79
2021/12/03 05:55:58;;;;;;;13.15;5.35;;;0.80;99.90;;;;;;5093365;28;20110;-78
2021/12/03 05:58:25;;;;;;;12.85;5.40;;;0.80;99.90;;;;;;5088814;28;20108;-78
2021/12/03 06:00:51;;;;;;;13.32;5.60;;;0.80;99.90;;;;;;5072539;28;20078;-78
2021/12/03 06:03:18;;;;;;;9.73;5.18;;;0.80;99.90;;;;;;5072835;28;20028;-78
2021/12/03 06:05:43;;;;;;;16.90;5.18;;;0.90;99.90;;;;;;5072964;28;20025;-78
2021/12/03 06:08:13;;;;;;;10.95;4.97;;;0.90;99.90;;;;;;5050861;28;20534;-79
2021/12/03 06:10:39;;;;;;;12.93;6.50;;;1.00;99.90;;;;;;5052734;28;20052;-79
2021/12/03 06:13:05;;;;;;;26.05;8.80;;;1.00;99.90;;;;;;5052246;28;20483;-78
2021/12/03 06:15:31;;;;;;;17.10;7.20;;;1.00;99.90;;;;;;5052229;28;20043;-78
2021/12/03 06:17:57;;;;;;;13.20;6.07;;;1.00;99.90;;;;;;5034944;28;20021;-78
2021/12/03 06:20:25;;;;;;;18.55;5.32;;;1.00;99.90;;;;;;5072343;28;20051;-79
2021/12/03 06:22:51;;;;;;;19.98;6.00;;;1.00;99.90;;;;;;5072514;28;20035;-79
2021/12/03 06:25:18;;;;;;;7.18;3.83;;;1.00;99.90;;;;;;5071238;28;20027;-78
2021/12/03 06:27:44;;;;;;;26.27;4.65;;;1.00;99.90;;;;;;5052310;28;20100;-78
2021/12/03 06:30:15;;;;;;;10.05;5.28;;;1.10;99.90;;;;;;5058277;28;20112;-78
2021/12/03 06:32:41;;;;;;;18.95;4.53;;;1.10;99.90;;;;;;5072082;28;20035;-78
2021/12/03 06:35:10;;;;;;;13.52;4.03;;;1.10;99.90;;;;;;5057543;28;20033;-78
2021/12/03 06:37:37;;;;;;;17.02;6.00;;;1.10;99.90;;;;;;5052877;28;20099;-78
2021/12/03 06:40:05;;;;;;;11.18;4.97;;;1.20;99.90;;;;;;5068537;28;20111;-78
2021/12/03 06:42:31;;;;;;;15.13;4.63;;;1.20;99.90;;;;;;5063616;28;20488;-78
2021/12/03 06:44:57;;;;;;;9.73;3.95;;;1.20;99.90;;;;;;5052620;28;20074;-79
2021/12/03 06:47:24;;;;;;;13.23;5.32;;;1.10;99.90;;;;;;5051876;28;20104;-78
2021/12/03 06:49:49;;;;;;;9.77;4.90;;;1.10;99.90;;;;;;5054647;28;20453;-78
2021/12/03 06:52:16;;;;;;;9.55;5.28;;;1.00;99.90;;;;;;5063609;28;20036;-77
2021/12/03 06:54:51;;;;;;;12.35;5.25;;;1.00;99.90;;;;;;5051842;28;20485;-77
2021/12/03 06:57:16;;;;;;;8.10;4.30;;;1.00;99.90;;;;;;5054791;28;20016;-78
2021/12/03 06:59:42;;;;;;;16.63;5.68;;;0.90;99.90;;;;;;5072286;28;20024;-78
2021/12/03 07:02:09;;;;;;;18.42;6.80;;;0.80;99.90;;;;;;5053170;28;20023;-78
2021/12/03 07:04:35;;;;;;;11.55;5.32;;;0.80;99.90;;;;;;5066963;28;20021;-78
2021/12/03 07:07:00;;;;;;;15.43;5.97;;;0.80;99.90;;;;;;5061739;28;20028;-78
2021/12/03 07:09:26;;;;;;;16.13;6.45;;;0.70;99.90;;;;;;5051837;28;20037;-78
2021/12/03 07:11:51;;;;;;;18.77;6.18;;;0.70;99.90;;;;;;5052151;28;20086;-78
2021/12/03 07:14:17;;;;;;;14.50;5.93;;;0.70;99.90;;;;;;5054059;28;20043;-78
2021/12/03 07:16:43;;;;;;;20.60;8.25;;;0.60;99.90;;;;;;5064791;28;20030;-78
2021/12/03 07:19:08;;;;;;;12.85;6.75;;;0.60;99.90;;;;;;5069384;28;20020;-78
2021/12/03 07:21:34;;;;;;;18.63;6.80;;;0.60;99.90;;;;;;5056766;28;20025;-78
2021/12/03 07:23:59;;;;;;;13.70;6.88;;;0.50;99.90;;;;;;5057635;28;20055;-78
2021/12/03 07:26:25;;;;;;;19.92;5.97;;;0.50;99.90;;;;;;5045049;28;20028;-78
2021/12/03 07:28:52;;;;;;;15.15;8.15;;;0.50;99.90;;;;;;5075450;28;20048;-77
2021/12/03 07:31:18;;;;;;;12.15;6.07;;;0.40;99.90;;;;;;5056472;28;20028;-78
2021/12/03 07:33:44;;;;;;;12.00;5.93;;;0.50;99.90;;;;;;5055887;28;20405;-78
2021/12/03 07:36:10;;;;;;;19.33;6.78;;;0.50;99.90;;;;;;5072550;28;20457;-78
2021/12/03 07:38:36;;;;;;;12.73;7.20;;;0.50;99.90;;;;;;5065268;28;20445;-79
2021/12/03 07:41:04;;;;;;;13.30;5.68;;;0.50;99.90;;;;;;5055339;28;20473;-78
2021/12/03 07:43:31;;;;;;;10.20;5.70;;;0.60;99.90;;;;;;5055515;28;20025;-78
2021/12/03 07:45:57;;;;;;;16.63;6.30;;;0.60;99.90;;;;;;5067226;28;20435;-79
2021/12/03 07:48:23;;;;;;;13.65;6.53;;;0.60;99.90;;;;;;5075349;28;20032;-78
2021/12/03 07:50:50;;;;;;;17.55;5.80;;;0.60;99.90;;;;;;5064994;28;20036;-78
2021/12/03 07:53:18;;;;;;;23.98;7.30;;;0.60;99.90;;;;;;5055184;28;20048;-78
2021/12/03 07:55:44;;;;;;;13.48;5.65;;;0.60;99.90;;;;;;5057808;28;20035;-78
2021/12/03 07:58:11;;;;;;;11.10;5.50;;;0.60;99.90;;;;;;5074491;28;20477;-78
2021/12/03 08:00:37;;;;;;;16.08;6.95;;;0.60;99.90;;;;;;5074143;28;20376;-78
2021/12/03 08:03:04;;;;;;;14.32;6.20;;;0.60;99.90;;;;;;5053225;28;20082;-78
2021/12/03 08:05:29;;;;;;;16.85;6.22;;;0.60;99.90;;;;;;5074848;28;20029;-78
2021/12/03 08:07:58;;;;;;;16.13;6.03;;;0.70;99.90;;;;;;5048806;28;20016;-78
2021/12/03 08:10:24;;;;;;;8.95;4.85;;;0.70;99.90;;;;;;5062176;28;20542;-78
2021/12/03 08:12:51;;;;;;;16.90;5.40;;;0.70;99.90;;;;;;5065853;28;20048;-78
2021/12/03 08:15:17;;;;;;;9.77;5.20;;;0.70;99.90;;;;;;5061955;28;20100;-78
2021/12/03 08:17:43;;;;;;;11.88;5.90;;;0.70;99.90;;;;;;5066986;28;20134;-78
2021/12/03 08:20:09;;;;;;;8.60;4.78;;;0.80;99.90;;;;;;5077241;28;20024;-78
2021/12/03 08:22:37;;;;;;;11.35;5.20;;;0.80;99.90;;;;;;5074794;28;20024;-78
2021/12/03 08:25:03;;;;;;;16.45;5.22;;;0.90;99.90;;;;;;5074373;28;20461;-78
2021/12/03 08:27:30;;;;;;;7.38;3.88;;;0.90;99.90;;;;;;5077614;28;20020;-78
2021/12/03 08:29:55;;;;;;;8.82;5.30;;;0.90;99.90;;;;;;5094413;28;20121;-78
2021/12/03 08:32:22;;;;;;;10.15;4.82;;;0.90;99.90;;;;;;5064432;28;20489;-78
2021/12/03 08:34:48;;;;;;;11.75;5.00;;;1.00;99.90;;;;;;5057923;28;20033;-78
2021/12/03 08:37:13;;;;;;;9.20;4.43;;;1.10;99.90;;;;;;5054315;28;20029;-78
2021/12/03 08:39:39;;;;;;;13.57;5.78;;;1.10;99.90;;;;;;5067260;28;20020;-78
2021/12/03 08:42:07;;;;;;;11.65;4.80;;;1.10;99.90;;;;;;5063716;28;20418;-78
2021/12/03 08:44:33;;;;;;;11.13;6.40;;;1.10;99.90;;;;;;5058369;28;20047;-78
2021/12/03 08:47:03;;;;;;;10.38;6.38;;;1.20;99.90;;;;;;5070270;28;20115;-78
2021/12/03 08:49:31;;;;;;;13.60;7.47;;;1.20;99.90;;;;;;5082932;28;20360;-78
2021/12/03 08:57:15;;;;;;;16.17;8.00;;;1.10;99.90;;;;;;5060961;28;20051;-78
2021/12/03 08:59:41;;;;;;;20.20;8.48;;;1.10;99.90;;;;;;5064356;28;20025;-78
2021/12/03 09:02:07;;;;;;;12.35;7.50;;;1.10;99.90;;;;;;5060715;28;20032;-77
2021/12/03 09:04:34;;;;;;;16.17;8.23;;;1.10;99.90;;;;;;5065731;28;20029;-78
2021/12/03 09:07:00;;;;;;;13.60;8.40;;;1.10;99.90;;;;;;5054501;28;20113;-78
2021/12/03 09:09:27;;;;;;;18.38;8.57;;;1.10;99.90;;;;;;5055021;28;20529;-78
2021/12/03 09:11:54;;;;;;;16.17;7.78;;;1.10;99.90;;;;;;5071780;28;20020;-79
2021/12/03 09:14:39;;;;;;;17.08;8.27;;;1.10;99.90;;;;;;5035803;28;20037;-78
2021/12/03 09:19:57;;;;;;;15.00;8.55;;;1.20;99.90;;;;;;5055088;28;20098;-78
2021/12/03 09:22:34;;;;;;;15.52;9.05;;;1.20;99.90;;;;;;5070513;28;20029;-78
2021/12/03 09:25:06;;;;;;;22.30;9.07;;;1.20;99.90;;;;;;5063406;28;20032;-78
2021/12/03 09:27:36;;;;;;;17.40;9.50;;;1.30;99.90;;;;;;5070014;28;20082;-78
2021/12/03 09:30:05;;;;;;;23.50;8.20;;;1.30;99.90;;;;;;5041671;28;20040;-79
2021/12/03 09:32:32;;;;;;;14.57;7.55;;;1.30;99.90;;;;;;5073066;28;20025;-79
2021/12/03 09:34:58;;;;;;;18.25;9.80;;;1.40;99.90;;;;;;5072866;28;20086;-78
2021/12/03 09:37:25;;;;;;;17.88;7.70;;;1.50;99.90;;;;;;5072746;28;20020;-78
2021/12/03 09:39:52;;;;;;;18.65;8.40;;;1.50;99.90;;;;;;5072910;28;20025;-78
2021/12/03 09:42:24;;;;;;;16.80;7.75;;;1.60;99.90;;;;;;5072125;28;20029;-79
2021/12/03 09:44:51;;;;;;;21.17;8.50;;;1.60;99.90;;;;;;5072615;28;20036;-78
2021/12/03 09:47:18;;;;;;;15.13;9.13;;;1.60;99.90;;;;;;5073035;28;20024;-78
2021/12/03 09:49:45;;;;;;;15.80;7.82;;;1.60;99.90;;;;;;5055097;28;20388;-78
2021/12/03 09:52:19;;;;;;;19.48;7.75;;;1.60;99.90;;;;;;5072787;28;20024;-79
2021/12/03 09:54:52;;;;;;;15.77;8.75;;;1.60;99.90;;;;;;5054784;28;20080;-79
2021/12/03 09:57:30;;;;;;;14.45;8.57;;;1.60;99.90;;;;;;5073032;28;20104;-79
2021/12/03 10:00:07;;;;;;;17.77;8.18;;;1.70;99.90;;;;;;5072590;28;20032;-79
2021/12/03 10:09:22;;;;;;;13.98;7.18;;;1.90;99.90;;;;;;5053298;28;20083;-78
2021/12/03 10:14:01;;;;;;;15.25;7.55;;;1.90;99.90;;;;;;5072009;28;20526;-79
2021/12/03 10:17:19;;;;;;;14.13;6.72;;;2.00;99.90;;;;;;5048765;28;20033;-78
2021/12/03 10:23:16;;;;;;;10.65;6.57;;;2.10;99.90;;;;;;5070014;28;20035;-78
2021/12/03 10:28:33;;;;;;;16.33;6.80;;;2.20;99.90;;;;;;5071790;28;20032;-79
2021/12/03 10:36:46;;;;;;;18.52;6.55;;;2.20;99.90;;;;;;5060010;28;20063;-78
2021/12/03 10:47:43;;;;;;;16.02;8.30;;;2.20;99.90;;;;;;5060660;28;20039;-78
2021/12/03 10:50:22;;;;;;;21.25;8.15;;;2.20;99.90;;;;;;5070728;28;20037;-77
2021/12/03 10:53:13;;;;;;;15.10;7.95;;;2.20;99.90;;;;;;5056404;28;20035;-78
2021/12/03 11:06:43;;;;;;;23.25;8.50;;;2.30;99.90;;;;;;5060469;28;20517;-78
2021/12/03 11:26:24;;;;;;;29.83;11.95;;;2.40;99.90;;;;;;5056054;28;20043;-78
2021/12/03 11:28:55;;;;;;;21.83;9.52;;;2.40;99.90;;;;;;5055543;28;20343;-78
2021/12/03 11:51:56;;;;;;;16.05;8.00;;;2.50;99.90;;;;;;5074477;28;20040;-78
2021/12/03 11:55:05;;;;;;;19.17;8.13;;;2.50;99.90;;;;;;5052353;28;20021;-78
2021/12/03 12:00:05;;;;;;;11.63;7.13;;;2.60;99.90;;;;;;5064250;28;20025;-78
2021/12/03 12:03:26;;;;;;;14.35;8.20;;;2.60;99.90;;;;;;5060822;28;20063;-78
2021/12/03 12:30:18;;;;;;;13.32;7.53;;;2.80;99.90;;;;;;5059274;28;20055;-78
2021/12/03 12:58:21;;;;;;;21.13;8.20;;;2.80;99.90;;;;;;5061812;28;20027;-77
2021/12/03 13:13:42;;;;;;;17.33;7.30;;;2.70;99.90;;;;;;5067121;28;20029;-78
2021/12/03 13:25:13;;;;;;;21.30;7.07;;;2.80;99.90;;;;;;5060404;28;20558;-78
2021/12/03 13:33:43;;;;;;;12.73;6.75;;;2.80;99.90;;;;;;5058617;28;20044;-78
2021/12/03 13:59:15;;;;;;;16.40;7.38;;;2.60;99.90;;;;;;5068162;28;20059;-78
2021/12/03 14:29:43;;;;;;;20.33;7.95;;;2.50;99.90;;;;;;5069961;28;20046;-78
2021/12/03 14:50:07;;;;;;;19.00;6.60;;;2.50;99.90;;;;;;5056664;28;20029;-81
2021/12/03 14:55:03;;;;;;;16.77;6.18;;;2.40;99.90;;;;;;5056058;28;20056;-79
2021/12/03 15:08:14;;;;;;;12.43;5.95;;;2.40;99.90;;;;;;5070882;28;20032;-78
2021/12/03 15:21:46;;;;;;;13.30;5.45;;;2.40;99.90;;;;;;5073163;28;20052;-78
2021/12/03 15:27:25;;;;;;;16.98;5.57;;;2.50;99.90;;;;;;5071276;28;20105;-81
2021/12/03 15:38:14;;;;;;;16.33;6.50;;;2.40;99.90;;;;;;5055686;28;20511;-78
2021/12/03 15:41:08;;;;;;;10.75;4.90;;;2.40;99.90;;;;;;5054426;28;20021;-78
2021/12/03 15:52:22;;;;;;;19.38;5.70;;;2.50;99.90;;;;;;5072634;28;20039;-78
2021/12/03 16:21:30;;;;;;;13.50;5.88;;;2.50;99.90;;;;;;5054810;28;20036;-78
2021/12/03 16:26:40;;;;;;;15.52;6.30;;;2.40;99.90;;;;;;5056146;28;20059;-78
2021/12/03 16:49:20;;;;;;;13.65;5.93;;;2.40;99.90;;;;;;5074112;28;20062;-77
2021/12/03 16:54:05;;;;;;;16.55;6.80;;;2.40;99.90;;;;;;5054056;28;20516;-77
2021/12/03 16:56:31;;;;;;;15.45;5.80;;;2.40;99.90;;;;;;5053935;28;20025;-78
2021/12/03 16:58:59;;;;;;;8.25;6.10;;;2.30;99.90;;;;;;5053649;28;20115;-78
2021/12/03 17:01:35;;;;;;;14.57;6.25;;;2.30;99.90;;;;;;5053567;28;20103;-80
2021/12/03 17:11:59;;;;;;;14.98;7.10;;;2.20;99.90;;;;;;5061610;28;20472;-80
2021/12/03 17:17:38;;;;;;;23.05;6.63;;;2.20;99.90;;;;;;5067592;28;20056;-81
2021/12/03 17:49:57;;;;;;;16.33;7.28;;;2.20;99.90;;;;;;5070327;28;20067;-80
2021/12/03 18:00:36;;;;;;;10.18;7.13;;;2.20;99.90;;;;;;5073918;28;20385;-80
2021/12/03 18:03:08;;;;;;;12.52;6.32;;;2.20;99.90;;;;;;5072401;28;20028;-80
2021/12/03 18:08:13;;;;;;;19.90;8.15;;;2.20;99.90;;;;;;5052802;28;20025;-80
2021/12/03 18:55:47;;;;;;;15.45;7.20;;;1.90;99.90;;;;;;5052214;28;20091;-80
2021/12/03 18:58:14;;;;;;;10.80;6.68;;;2.00;99.90;;;;;;5052513;28;20031;-80
2021/12/03 19:00:44;;;;;;;11.80;6.65;;;2.00;99.90;;;;;;5072300;28;20476;-79
2021/12/03 19:03:36;;;;;;;12.32;7.25;;;1.90;99.90;;;;;;5053906;28;20021;-77
2021/12/03 19:13:53;;;;;;;12.38;7.20;;;2.00;99.90;;;;;;5071513;28;20031;-79
2021/12/03 19:16:24;;;;;;;10.95;7.35;;;2.00;99.90;;;;;;5057774;28;20043;-78
2021/12/03 19:18:52;;;;;;;12.13;6.50;;;2.00;99.90;;;;;;5059124;28;20029;-77
2021/12/03 19:21:23;;;;;;;17.08;7.13;;;2.00;99.90;;;;;;5071618;28;20017;-80
2021/12/03 19:23:51;;;;;;;11.98;6.75;;;2.10;99.90;;;;;;5037974;28;20037;-78
2021/12/03 19:26:19;;;;;;;12.63;6.88;;;2.10;99.90;;;;;;5055828;28;20453;-80
2021/12/03 19:28:44;;;;;;;16.85;7.03;;;2.10;99.90;;;;;;5055821;28;20078;-80
2021/12/03 19:31:10;;;;;;;10.27;6.78;;;2.10;99.90;;;;;;5070505;28;20025;-79
2021/12/03 19:33:36;;;;;;;12.77;7.82;;;2.10;99.90;;;;;;5071040;28;20032;-77
2021/12/03 19:36:04;;;;;;;14.80;7.50;;;2.00;99.90;;;;;;5056993;28;20029;-77
2021/12/03 19:38:31;;;;;;;15.48;7.50;;;2.00;99.90;;;;;;5075557;28;20021;-80
2021/12/03 19:41:00;;;;;;;9.30;6.88;;;2.10;99.90;;;;;;5073909;28;20020;-77
2021/12/03 19:43:42;;;;;;;12.93;8.15;;;2.00;99.90;;;;;;5072952;28;20074;-78
2021/12/03 19:46:07;;;;;;;13.93;7.05;;;2.00;99.90;;;;;;5068917;28;20496;-77
2021/12/03 19:48:37;;;;;;;14.23;6.60;;;2.00;99.90;;;;;;5054351;28;20127;-78
2021/12/03 19:51:10;;;;;;;15.05;6.88;;;2.10;99.90;;;;;;5059857;28;20017;-77
2021/12/03 19:53:42;;;;;;;13.80;6.53;;;2.10;99.90;;;;;;5074600;28;20032;-77
2021/12/03 19:56:08;;;;;;;14.93;7.35;;;2.20;99.90;;;;;;5055029;28;20033;-77
2021/12/03 19:58:35;;;;;;;14.05;7.18;;;2.20;99.90;;;;;;5036841;28;20127;-77
2021/12/03 20:01:01;;;;;;;9.63;6.40;;;2.20;99.90;;;;;;5056589;28;20147;-78
2021/12/03 20:03:27;;;;;;;12.52;6.82;;;2.20;99.90;;;;;;5055877;28;20104;-77
2021/12/03 20:05:53;;;;;;;15.88;7.55;;;2.20;99.90;;;;;;5055403;28;20020;-78
2021/12/03 20:08:20;;;;;;;11.73;6.50;;;2.20;99.90;;;;;;5040056;28;20071;-78
2021/12/03 20:10:48;;;;;;;8.82;6.00;;;2.20;99.90;;;;;;5060014;28;20029;-77